createdAt,value
2022-10-06T00:00:45.016Z,100.00
2022-10-06T00:03:13.130Z,100.00
2022-10-06T00:05:42.420Z,100.00
2022-10-06T00:08:10.868Z,100.00
2022-10-06T00:10:40.123Z,100.00
2022-10-06T00:13:08.588Z,100.00
2022-10-06T00:15:38.724Z,100.00
2022-10-06T00:18:06.573Z,100.00
2022-10-06T00:20:34.432Z,100.00
2022-10-06T00:23:03.647Z,100.00
2022-10-06T00:25:32.182Z,100.00
2022-10-06T00:28:00.002Z,100.00
2022-10-06T00:30:28.581Z,100.00
2022-10-06T00:32:58.288Z,100.00
2022-10-06T00:35:26.644Z,100.00
2022-10-06T00:37:54.864Z,100.00
2022-10-06T00:40:24.266Z,100.00
2022-10-06T00:42:54.459Z,100.00
2022-10-06T00:45:24.252Z,100.00
2022-10-06T00:47:52.256Z,100.00
2022-10-06T00:50:22.281Z,100.00
2022-10-06T00:52:50.433Z,100.00
2022-10-06T00:55:20.336Z,100.00
2022-10-06T00:57:49.804Z,100.00
2022-10-06T01:00:17.694Z,100.00
2022-10-06T01:02:48.721Z,100.00
2022-10-06T01:05:19.191Z,100.00
2022-10-06T01:07:47.124Z,100.00
2022-10-06T01:10:14.923Z,100.00
2022-10-06T01:12:42.921Z,100.00
2022-10-06T01:15:12.318Z,100.00
2022-10-06T01:17:43.140Z,100.00
2022-10-06T01:20:12.252Z,100.00
2022-10-06T01:22:43.485Z,100.00
2022-10-06T01:25:12.592Z,100.00
2022-10-06T01:27:41.493Z,100.00
2022-10-06T01:30:10.233Z,100.00
2022-10-06T01:32:39.833Z,100.00
2022-10-06T01:35:08.748Z,100.00
2022-10-06T01:37:36.639Z,100.00
2022-10-06T01:40:06.276Z,100.00
2022-10-06T01:42:35.858Z,100.00
2022-10-06T01:45:04.091Z,100.00
2022-10-06T01:47:31.915Z,100.00
2022-10-06T01:50:00.034Z,100.00
2022-10-06T01:52:27.904Z,100.00
2022-10-06T01:54:55.983Z,100.00
2022-10-06T01:57:25.163Z,100.00
2022-10-06T01:59:54.928Z,100.00
2022-10-06T02:02:23.184Z,100.00
2022-10-06T02:04:50.978Z,100.00
2022-10-06T02:07:19.087Z,100.00
2022-10-06T02:09:46.911Z,100.00
2022-10-06T02:12:14.893Z,100.00
2022-10-06T02:14:44.134Z,100.00
2022-10-06T02:17:12.248Z,100.00
2022-10-06T02:19:40.194Z,100.00
2022-10-06T02:22:08.105Z,100.00
2022-10-06T02:24:36.039Z,100.00
2022-10-06T02:27:03.805Z,100.00
2022-10-06T02:29:31.697Z,100.00
2022-10-06T02:32:00.947Z,100.00
2022-10-06T02:34:29.234Z,100.00
2022-10-06T02:36:57.834Z,100.00
2022-10-06T02:39:25.594Z,100.00
2022-10-06T02:41:53.527Z,100.00
2022-10-06T02:44:21.531Z,100.00
2022-10-06T02:46:49.728Z,100.00
2022-10-06T02:49:19.002Z,100.00
2022-10-06T02:51:47.367Z,100.00
2022-10-06T02:54:15.625Z,100.00
2022-10-06T02:56:43.441Z,100.00
2022-10-06T02:59:11.335Z,100.00
2022-10-06T03:01:39.287Z,100.00
2022-10-06T03:04:07.303Z,100.00
2022-10-06T03:06:37.063Z,100.00
2022-10-06T03:09:06.701Z,100.00
2022-10-06T03:11:35.674Z,100.00
2022-10-06T03:14:03.494Z,100.00
2022-10-06T03:16:33.670Z,100.00
2022-10-06T03:19:02.067Z,100.00
2022-10-06T03:21:31.015Z,100.00
2022-10-06T03:24:00.520Z,100.00
2022-10-06T03:26:29.822Z,100.00
2022-10-06T03:28:57.639Z,100.00
2022-10-06T03:31:25.614Z,100.00
2022-10-06T03:33:54.464Z,100.00
2022-10-06T03:36:23.632Z,100.00
2022-10-06T03:38:51.771Z,100.00
2022-10-06T03:41:21.904Z,100.00
2022-10-06T03:43:50.493Z,100.00
2022-10-06T03:46:19.873Z,100.00
2022-10-06T03:48:48.296Z,100.00
2022-10-06T03:51:17.907Z,100.00
2022-10-06T03:53:46.543Z,100.00
2022-10-06T03:56:15.315Z,100.00
2022-10-06T03:58:45.643Z,100.00
2022-10-06T04:01:15.207Z,100.00
2022-10-06T04:03:43.154Z,100.00
2022-10-06T04:06:12.899Z,100.00
2022-10-06T04:08:41.406Z,100.00
2022-10-06T04:11:10.388Z,100.00
2022-10-06T04:13:38.627Z,100.00
2022-10-06T04:16:15.010Z,100.00
2022-10-06T04:18:43.108Z,100.00
2022-10-06T04:21:10.925Z,100.00
2022-10-06T04:23:39.206Z,100.00
2022-10-06T04:26:10.040Z,100.00
2022-10-06T04:28:39.028Z,100.00
2022-10-06T04:31:08.336Z,100.00
2022-10-06T04:33:40.818Z,100.00
2022-10-06T04:36:09.650Z,100.00
2022-10-06T04:38:37.689Z,100.00
2022-10-06T04:41:07.061Z,100.00
2022-10-06T04:43:34.982Z,100.00
2022-10-06T04:46:24.020Z,100.00
2022-10-06T04:48:55.791Z,100.00
2022-10-06T04:51:25.166Z,100.00
2022-10-06T04:53:53.051Z,100.00
2022-10-06T04:56:22.152Z,100.00
2022-10-06T04:58:51.089Z,100.00
2022-10-06T05:01:19.829Z,100.00
2022-10-06T05:03:48.496Z,100.00
2022-10-06T05:06:18.985Z,100.00
2022-10-06T05:08:48.719Z,100.00
2022-10-06T05:11:19.473Z,100.00
2022-10-06T05:13:50.531Z,100.00
2022-10-06T05:16:18.970Z,100.00
2022-10-06T05:18:46.931Z,100.00
2022-10-06T05:21:15.503Z,100.00
2022-10-06T05:23:45.401Z,100.00
2022-10-06T05:26:14.176Z,100.00
2022-10-06T05:28:42.363Z,100.00
2022-10-06T05:31:12.327Z,100.00
2022-10-06T05:33:41.005Z,100.00
2022-10-06T05:36:10.186Z,100.00
2022-10-06T05:38:38.493Z,100.00
2022-10-06T05:41:08.604Z,100.00
2022-10-06T05:43:36.659Z,100.00
2022-10-06T05:46:05.656Z,100.00
2022-10-06T05:48:33.795Z,100.00
2022-10-06T05:51:02.494Z,100.00
2022-10-06T05:53:30.864Z,100.00
2022-10-06T05:56:10.057Z,100.00
2022-10-06T05:58:38.728Z,100.00
2022-10-06T06:01:07.426Z,100.00
2022-10-06T06:03:35.418Z,100.00
2022-10-06T06:06:03.403Z,100.00
2022-10-06T06:08:31.736Z,100.00
2022-10-06T06:11:07.697Z,100.00
2022-10-06T06:13:37.001Z,100.00
2022-10-06T06:16:06.271Z,100.00
2022-10-06T06:18:34.825Z,100.00
2022-10-06T06:21:03.859Z,100.00
2022-10-06T06:23:32.548Z,100.00
2022-10-06T06:26:02.647Z,100.00
2022-10-06T06:28:31.628Z,100.00
2022-10-06T06:31:02.701Z,100.00
2022-10-06T06:33:30.903Z,100.00
2022-10-06T06:36:03.297Z,100.00
2022-10-06T06:38:32.747Z,100.00
2022-10-06T06:41:00.810Z,100.00
2022-10-06T06:43:29.319Z,100.00
2022-10-06T06:46:04.444Z,100.00
2022-10-06T06:48:32.793Z,100.00
2022-10-06T06:51:01.237Z,100.00
2022-10-06T06:53:29.097Z,100.00
2022-10-06T06:55:57.082Z,100.00
2022-10-06T06:58:25.264Z,100.00
2022-10-06T07:00:53.310Z,100.00
2022-10-06T07:03:55.508Z,100.00
2022-10-06T07:06:11.701Z,100.00
2022-10-06T07:08:42.718Z,100.00
2022-10-06T07:11:14.844Z,100.00
2022-10-06T07:13:43.288Z,100.00
2022-10-06T07:16:29.905Z,100.00
2022-10-06T07:19:20.137Z,100.00
2022-10-06T07:22:08.692Z,100.00
2022-10-06T07:24:53.786Z,100.00
2022-10-06T07:27:21.653Z,100.00
2022-10-06T07:29:51.830Z,100.00
2022-10-06T07:32:21.214Z,100.00
2022-10-06T07:34:51.115Z,100.00
2022-10-06T07:37:19.790Z,100.00
2022-10-06T07:39:49.568Z,100.00
2022-10-06T07:42:17.915Z,100.00
2022-10-06T07:45:06.255Z,100.00
2022-10-06T07:47:34.269Z,100.00
2022-10-06T07:50:03.786Z,100.00
2022-10-06T07:52:31.678Z,100.00
2022-10-06T07:54:59.531Z,100.00
2022-10-06T07:57:34.649Z,100.00
2022-10-06T08:00:05.436Z,100.00
2022-10-06T08:02:35.800Z,100.00
2022-10-06T08:05:07.241Z,100.00
2022-10-06T08:07:35.435Z,100.00
2022-10-06T08:10:03.236Z,100.00
2022-10-06T08:12:40.188Z,100.00
2022-10-06T08:15:11.373Z,100.00
2022-10-06T08:17:39.280Z,100.00
2022-10-06T08:20:09.899Z,100.00
2022-10-06T08:22:40.152Z,100.00
2022-10-06T08:25:10.170Z,100.00
2022-10-06T08:27:38.670Z,100.00
2022-10-06T08:30:07.467Z,100.00
2022-10-06T08:32:35.457Z,100.00
2022-10-06T08:35:03.496Z,100.00
2022-10-06T08:37:32.927Z,100.00
2022-10-06T08:40:00.754Z,100.00
2022-10-06T08:42:33.069Z,100.00
2022-10-06T08:45:03.357Z,100.00
2022-10-06T08:47:34.724Z,100.00
2022-10-06T08:50:04.429Z,99.91
2022-10-06T08:52:43.606Z,99.02
2022-10-06T08:55:20.121Z,99.35
2022-10-06T08:57:51.957Z,96.83
2022-10-06T09:00:21.407Z,96.02
2022-10-06T09:02:51.058Z,98.36
2022-10-06T09:05:25.413Z,97.13
2022-10-06T09:07:59.438Z,96.46
2022-10-06T09:10:39.497Z,94.48
2022-10-06T09:13:10.919Z,95.34
2022-10-06T09:15:42.023Z,92.88
2022-10-06T09:18:13.573Z,92.36
2022-10-06T09:20:45.106Z,91.63
2022-10-06T09:23:16.681Z,92.75
2022-10-06T09:25:44.992Z,90.43
2022-10-06T09:28:15.845Z,90.00
2022-10-06T09:30:44.034Z,87.81
2022-10-06T09:33:18.054Z,100.00
2022-10-06T09:37:03.315Z,88.21
2022-10-06T09:39:36.727Z,84.77
2022-10-06T09:42:12.536Z,83.95
2022-10-06T09:44:48.188Z,82.14
2022-10-06T09:47:35.887Z,77.52
2022-10-06T09:50:14.327Z,79.05
2022-10-06T09:52:45.603Z,75.17
2022-10-06T09:55:15.399Z,75.26
2022-10-06T09:57:50.760Z,74.59
2022-10-06T10:00:29.998Z,74.24
2022-10-06T10:03:00.665Z,74.89
2022-10-06T10:05:31.321Z,72.68
2022-10-06T10:08:06.302Z,73.29
2022-10-06T10:10:36.620Z,70.64
2022-10-06T10:13:18.801Z,70.44
2022-10-06T10:15:54.391Z,67.49
2022-10-06T10:18:28.228Z,67.16
2022-10-06T10:20:59.050Z,68.70
2022-10-06T10:23:33.458Z,67.97
2022-10-06T10:26:22.615Z,64.15
2022-10-06T10:29:11.485Z,62.26
2022-10-06T10:32:02.538Z,63.23
2022-10-06T10:34:52.616Z,61.13
2022-10-06T10:37:25.652Z,58.50
2022-10-06T10:40:01.958Z,59.93
2022-10-06T10:42:37.377Z,59.09
2022-10-06T10:45:12.075Z,58.96
2022-10-06T10:47:44.660Z,59.21
2022-10-06T10:50:22.452Z,58.56
2022-10-06T10:52:52.483Z,58.13
2022-10-06T10:55:28.726Z,57.90
2022-10-06T10:58:00.733Z,60.30
2022-10-06T11:00:34.120Z,58.49
2022-10-06T11:03:02.959Z,58.66
2022-10-06T11:05:43.741Z,56.00
2022-10-06T11:08:19.135Z,54.74
2022-10-06T11:10:52.811Z,54.59
2022-10-06T11:13:28.238Z,53.45
2022-10-06T11:16:19.972Z,53.99
2022-10-06T11:19:15.159Z,55.37
2022-10-06T11:21:54.807Z,54.03
2022-10-06T11:24:32.643Z,53.87
2022-10-06T11:27:26.710Z,52.72
2022-10-06T11:30:03.539Z,52.13
2022-10-06T11:32:43.552Z,51.57
2022-10-06T11:35:19.324Z,54.10
2022-10-06T11:37:53.767Z,52.67
2022-10-06T11:40:39.719Z,53.89
2022-10-06T11:43:17.632Z,51.31
2022-10-06T11:45:55.988Z,51.37
2022-10-06T11:48:29.852Z,53.36
2022-10-06T11:51:18.602Z,51.75
2022-10-06T11:53:46.973Z,54.24
2022-10-06T11:56:39.672Z,54.01
2022-10-06T11:59:26.205Z,53.32
2022-10-06T12:02:00.926Z,53.57
2022-10-06T12:04:29.822Z,52.03
2022-10-06T12:07:00.616Z,52.06
2022-10-06T12:09:51.724Z,51.00
2022-10-06T12:13:05.714Z,50.79
2022-10-06T12:17:06.028Z,52.22
2022-10-06T12:19:03.623Z,52.67
2022-10-06T12:21:48.362Z,52.78
2022-10-06T12:24:31.485Z,51.95
2022-10-06T12:27:20.707Z,51.46
2022-10-06T12:29:57.341Z,49.72
2022-10-06T12:32:47.641Z,47.76
2022-10-06T12:35:24.943Z,48.33
2022-10-06T12:37:54.883Z,49.52
2022-10-06T12:40:49.716Z,50.44
2022-10-06T12:43:57.403Z,51.33
2022-10-06T12:46:34.276Z,51.52
2022-10-06T12:49:22.372Z,49.91
2022-10-06T12:51:56.039Z,50.15
2022-10-06T12:54:35.629Z,51.37
2022-10-06T12:57:16.322Z,50.80
2022-10-06T12:59:44.957Z,50.37
2022-10-06T13:02:19.392Z,50.58
2022-10-06T13:04:52.720Z,50.22
2022-10-06T13:07:22.970Z,50.67
2022-10-06T13:09:55.822Z,51.89
2022-10-06T13:12:31.821Z,52.30
2022-10-06T13:15:20.417Z,51.25
2022-10-06T13:17:54.217Z,50.59
2022-10-06T13:20:35.600Z,48.10
2022-10-06T13:23:10.279Z,47.67
2022-10-06T13:25:46.185Z,46.87
2022-10-06T13:28:22.857Z,47.78
2022-10-06T13:30:52.722Z,46.12
2022-10-06T13:33:21.692Z,47.81
2022-10-06T13:35:55.316Z,47.70
2022-10-06T13:38:23.391Z,48.22
2022-10-06T13:41:21.931Z,46.24
2022-10-06T13:43:52.709Z,47.87
2022-10-06T13:46:23.963Z,47.36
2022-10-06T13:48:56.226Z,47.85
2022-10-06T13:51:30.291Z,47.48
2022-10-06T13:54:01.098Z,48.59
2022-10-06T13:56:37.825Z,47.61
2022-10-06T13:59:31.490Z,49.07
2022-10-06T14:02:02.599Z,50.12
2022-10-06T14:04:34.584Z,50.14
2022-10-06T14:07:06.841Z,49.44
2022-10-06T14:09:35.389Z,50.84
2022-10-06T14:12:06.905Z,51.66
2022-10-06T14:14:35.194Z,52.61
2022-10-06T14:17:03.695Z,51.83
2022-10-06T14:19:37.467Z,52.43
2022-10-06T14:22:27.378Z,53.57
2022-10-06T14:24:55.609Z,53.80
2022-10-06T14:27:23.608Z,55.02
2022-10-06T14:29:51.664Z,55.01
2022-10-06T14:32:20.299Z,54.72
2022-10-06T14:34:48.430Z,56.19
2022-10-06T14:37:17.948Z,55.45
2022-10-06T14:39:46.986Z,55.65
2022-10-06T14:42:15.646Z,54.82
2022-10-06T14:44:44.885Z,55.46
2022-10-06T14:47:14.198Z,56.21
2022-10-06T14:49:44.939Z,56.68
2022-10-06T14:52:13.179Z,55.84
2022-10-06T14:54:43.289Z,56.18
2022-10-06T14:57:11.377Z,56.29
2022-10-06T14:59:39.515Z,57.66
2022-10-06T15:02:07.798Z,57.57
2022-10-06T15:04:35.862Z,58.64
2022-10-06T15:07:21.190Z,57.16
2022-10-06T15:09:50.902Z,57.64
2022-10-06T15:12:18.946Z,58.52
2022-10-06T15:14:47.009Z,58.93
2022-10-06T15:17:14.978Z,58.86
2022-10-06T15:19:43.040Z,60.63
2022-10-06T15:22:11.034Z,60.04
2022-10-06T15:24:39.073Z,60.10
2022-10-06T15:27:26.049Z,62.43
2022-10-06T15:29:54.133Z,63.56
2022-10-06T15:32:22.616Z,60.62
2022-10-06T15:34:52.014Z,63.02
2022-10-06T15:37:20.310Z,62.95
2022-10-06T15:39:48.633Z,63.00
2022-10-06T15:42:21.528Z,63.92
2022-10-06T15:44:50.014Z,63.18
2022-10-06T15:47:18.436Z,64.31
2022-10-06T15:49:47.093Z,64.17
2022-10-06T15:52:17.680Z,64.65
2022-10-06T15:54:46.561Z,65.02
2022-10-06T15:57:20.304Z,66.43
2022-10-06T15:59:50.137Z,66.55
2022-10-06T16:02:20.072Z,67.74
2022-10-06T16:05:27.145Z,69.15
2022-10-06T16:07:55.258Z,69.12
2022-10-06T16:10:23.421Z,69.05
2022-10-06T16:12:51.618Z,70.37
2022-10-06T16:15:21.055Z,71.71
2022-10-06T16:17:49.092Z,71.29
2022-10-06T16:20:18.217Z,73.34
2022-10-06T16:22:46.648Z,73.67
2022-10-06T16:25:14.759Z,73.64
2022-10-06T16:27:42.806Z,72.96
2022-10-06T16:30:12.369Z,73.61
2022-10-06T16:32:42.073Z,74.97
2022-10-06T16:35:14.689Z,76.85
2022-10-06T16:37:49.919Z,77.03
2022-10-06T16:40:19.011Z,77.44
2022-10-06T16:42:47.021Z,79.29
2022-10-06T16:45:15.473Z,79.59
2022-10-06T16:47:44.996Z,79.87
2022-10-06T16:50:13.017Z,81.05
2022-10-06T16:52:41.402Z,79.27
2022-10-06T16:55:09.882Z,79.71
2022-10-06T16:57:40.797Z,82.03
2022-10-06T17:00:10.227Z,82.00
2022-10-06T17:02:38.684Z,83.06
2022-10-06T17:05:08.992Z,84.18
2022-10-06T17:07:37.029Z,82.49
2022-10-06T17:10:20.085Z,83.78
2022-10-06T17:12:48.920Z,82.89
2022-10-06T17:15:17.064Z,83.09
2022-10-06T17:17:45.123Z,84.52
2022-10-06T17:20:17.002Z,85.60
2022-10-06T17:22:45.050Z,86.93
2022-10-06T17:25:14.158Z,88.12
2022-10-06T17:27:42.312Z,89.47
2022-10-06T17:30:11.348Z,89.79
2022-10-06T17:32:39.596Z,90.66
2022-10-06T17:35:09.076Z,90.25
2022-10-06T17:37:40.430Z,90.39
2022-10-06T17:40:09.554Z,91.74
2022-10-06T17:42:38.947Z,92.69
2022-10-06T17:45:07.812Z,92.59
2022-10-06T17:47:35.949Z,92.98
2022-10-06T17:50:04.022Z,92.50
2022-10-06T17:52:32.968Z,95.24
2022-10-06T17:55:02.331Z,95.18
2022-10-06T17:57:31.185Z,94.73
2022-10-06T17:59:59.359Z,96.02
2022-10-06T18:02:28.046Z,96.89
2022-10-06T18:04:56.216Z,96.49
2022-10-06T18:07:24.229Z,97.04
2022-10-06T18:10:06.203Z,96.87
2022-10-06T18:12:38.599Z,98.70
2022-10-06T18:15:09.013Z,99.61
2022-10-06T18:17:37.023Z,99.59
2022-10-06T18:20:06.368Z,100.00
2022-10-06T18:22:34.632Z,100.00
2022-10-06T18:25:02.755Z,100.00
2022-10-06T18:27:33.431Z,100.00
2022-10-06T18:30:02.919Z,100.00
2022-10-06T18:38:07.736Z,100.00
2022-10-06T18:40:35.805Z,100.00
2022-10-06T18:43:03.911Z,100.00
2022-10-06T18:45:50.605Z,100.00
2022-10-06T18:48:36.136Z,100.00
2022-10-06T18:51:04.600Z,100.00
2022-10-06T18:54:44.529Z,100.00
2022-10-06T18:57:12.639Z,100.00
2022-10-06T18:59:40.650Z,100.00
2022-10-06T19:02:08.901Z,100.00
2022-10-06T19:04:37.406Z,100.00
2022-10-06T19:07:05.554Z,100.00
2022-10-06T19:09:33.562Z,100.00
2022-10-06T19:12:03.044Z,100.00
2022-10-06T19:14:34.869Z,100.00
2022-10-06T19:17:06.651Z,100.00
2022-10-06T19:19:35.061Z,100.00
2022-10-06T19:22:04.721Z,100.00
2022-10-06T19:24:36.664Z,100.00
2022-10-06T19:27:09.978Z,100.00
2022-10-06T19:29:38.480Z,100.00
2022-10-06T19:32:08.241Z,100.00
2022-10-06T19:34:38.333Z,100.00
2022-10-06T19:37:07.390Z,100.00
2022-10-06T19:39:42.839Z,100.00
2022-10-06T19:42:30.758Z,100.00
2022-10-06T19:44:58.984Z,100.00
2022-10-06T19:47:27.688Z,100.00
2022-10-06T19:50:02.090Z,100.00
2022-10-06T19:52:32.401Z,100.00
2022-10-06T19:55:02.769Z,100.00
2022-10-06T19:57:33.714Z,100.00
2022-10-06T20:00:01.979Z,100.00
2022-10-06T20:02:30.020Z,100.00
2022-10-06T20:04:58.276Z,100.00
2022-10-06T20:07:27.946Z,100.00
2022-10-06T20:09:56.349Z,100.00
2022-10-06T20:12:25.580Z,100.00
2022-10-06T20:14:55.077Z,100.00
2022-10-06T20:17:23.242Z,100.00
2022-10-06T20:19:56.679Z,100.00
2022-10-06T20:22:26.429Z,100.00
2022-10-06T20:24:56.874Z,100.00
2022-10-06T20:27:25.023Z,100.00
2022-10-06T20:29:55.070Z,100.00
2022-10-06T20:32:23.269Z,100.00
2022-10-06T20:34:51.320Z,100.00
2022-10-06T20:37:19.327Z,100.00
2022-10-06T20:40:04.445Z,100.00
2022-10-06T20:42:32.576Z,100.00
2022-10-06T20:45:02.183Z,100.00
2022-10-06T20:47:31.093Z,100.00
2022-10-06T20:50:01.550Z,100.00
2022-10-06T20:52:30.406Z,100.00
2022-10-06T20:54:58.550Z,100.00
2022-10-06T20:57:33.517Z,100.00
2022-10-06T21:00:03.316Z,100.00
2022-10-06T21:02:32.069Z,100.00
2022-10-06T21:05:02.374Z,100.00
2022-10-06T21:07:30.507Z,100.00
2022-10-06T21:09:58.568Z,100.00
2022-10-06T21:12:27.076Z,100.00
2022-10-06T21:14:56.964Z,100.00
2022-10-06T21:17:26.618Z,100.00
2022-10-06T21:19:54.761Z,100.00
2022-10-06T21:22:22.877Z,100.00
2022-10-06T21:24:51.128Z,100.00
2022-10-06T21:27:21.039Z,100.00
2022-10-06T21:29:49.150Z,100.00
2022-10-06T21:32:17.178Z,100.00
2022-10-06T21:34:46.618Z,100.00
2022-10-06T21:37:14.756Z,100.00
2022-10-06T21:39:42.841Z,100.00
2022-10-06T21:42:10.893Z,100.00
2022-10-06T21:44:38.972Z,100.00
2022-10-06T21:47:09.601Z,100.00
2022-10-06T21:49:37.782Z,100.00
2022-10-06T21:52:07.300Z,100.00
2022-10-06T21:54:38.207Z,100.00
2022-10-06T21:57:08.072Z,100.00
2022-10-06T21:59:36.162Z,100.00
2022-10-06T22:02:04.318Z,100.00
2022-10-06T22:04:32.374Z,100.00
2022-10-06T22:07:00.389Z,100.00
2022-10-06T22:09:29.888Z,100.00
2022-10-06T22:11:58.389Z,100.00
2022-10-06T22:14:26.554Z,100.00
2022-10-06T22:16:54.672Z,100.00
2022-10-06T22:19:22.693Z,100.00
2022-10-06T22:21:50.717Z,100.00
2022-10-06T22:24:20.767Z,100.00
2022-10-06T22:26:50.894Z,100.00
2022-10-06T22:29:20.418Z,100.00
2022-10-06T22:31:49.549Z,100.00
2022-10-06T22:34:19.594Z,100.00
2022-10-06T22:36:47.660Z,100.00
2022-10-06T22:39:16.008Z,100.00
2022-10-06T22:41:44.113Z,100.00
2022-10-06T22:44:13.600Z,100.00
2022-10-06T22:46:41.751Z,100.00
2022-10-06T22:49:09.795Z,100.00
2022-10-06T22:51:37.972Z,100.00
2022-10-06T22:54:06.117Z,100.00
2022-10-06T22:56:35.049Z,100.00
2022-10-06T22:59:03.234Z,100.00
2022-10-06T23:01:32.652Z,100.00
2022-10-06T23:04:00.746Z,100.00
2022-10-06T23:06:31.349Z,100.00
2022-10-06T23:09:00.032Z,100.00
2022-10-06T23:11:30.229Z,100.00
2022-10-06T23:13:58.239Z,100.00
2022-10-06T23:16:26.388Z,100.00
2022-10-06T23:18:56.157Z,100.00
2022-10-06T23:21:27.491Z,100.00
2022-10-06T23:23:57.306Z,100.00
2022-10-06T23:26:25.613Z,100.00
2022-10-06T23:28:55.153Z,100.00
2022-10-06T23:31:23.624Z,100.00
2022-10-06T23:33:51.931Z,100.00
2022-10-06T23:36:21.533Z,100.00
2022-10-06T23:38:49.551Z,100.00
2022-10-06T23:41:18.056Z,100.00
2022-10-06T23:43:46.563Z,100.00
2022-10-06T23:46:15.014Z,100.00
2022-10-06T23:48:43.551Z,100.00
2022-10-06T23:51:13.365Z,100.00
2022-10-06T23:53:43.035Z,100.00
2022-10-06T23:56:12.067Z,100.00
2022-10-06T23:58:41.712Z,100.00
